Terminal Aerodrome Forecast
Issued by NWS

Home | Current Version | Previous Version | Text Only | Print | Product List | Glossary On
Versions: 1 2 3 4 5 6 7 8 9 10 11 12 13 14 15 16 17 18 19 20 21 22 23 24 25 26 27 28 29 30 31 32 33 34 35 36 37 38 39 40 41 42 43 44 45 46 47 48 49 50
000
FTUS41 KGYX 211922 AAA
TAFPSM
TAF AMD
KPSM 211922Z 2119/2218 11008KT P6SM VCSH BKN007 BKN090 OVC120
     FM220000 12004KT 2SM BR OVC035
     FM220400 00000KT 3/4SM BR SCT004
     FM221200 35003KT 5SM BR OVC003
     FM221400 01006KT P6SM BKN007
     FM221600 02006KT P6SM BKN015=

USA.gov is the U.S. government's official web portal to all federal, state and local government web resources and services.